Weatherford, Oklahoma
Current Conditions -  °F | °C
As of 12:35 PM on Saturday 25 Oct 2014 (Local Time) from KOJA Reporting Station
Clear Clear  
Wind Chill: 81°   Ceiling: Unl
Heat Index: 81°   Visibility: 10mi
Dew Point: 55°   Wind: 7mph
Humidity: 42%   Direction: 230°SW
Pressure: 30.1"   Gusts: NA
Location:  35.53°N, 98.71°W
Report Text: KOJA 251735Z AUTO 23006KT 10SM CLR 27/13 A3010 RMK AO2
Loading
Personal Weather Stations






























Interactive Weather Map
Tropical Storm Tracking
New forecast layout! Learn more

10-Day Weather Forecast

Advertisements
Track Severe Weather on mobile